sensor_id;sensor_type;location;lat;lon;timestamp;P1;durP1;ratioP1;P2;durP2;ratioP2
22046;SDS011;11187;49.412;20.956;2023-06-04T00:01:26;12.80;;;11.68;;
22046;SDS011;11187;49.412;20.956;2023-06-04T00:04:20;14.05;;;12.60;;
22046;SDS011;11187;49.412;20.956;2023-06-04T00:07:14;12.95;;;11.95;;
22046;SDS011;11187;49.412;20.956;2023-06-04T00:10:08;12.85;;;11.75;;
22046;SDS011;11187;49.412;20.956;2023-06-04T00:12:41;13.48;;;12.23;;
22046;SDS011;11187;49.412;20.956;2023-06-04T00:15:28;14.02;;;12.82;;
22046;SDS011;11187;49.412;20.956;2023-06-04T00:18:01;13.23;;;12.02;;
22046;SDS011;11187;49.412;20.956;2023-06-04T00:20:48;12.98;;;11.63;;
22046;SDS011;11187;49.412;20.956;2023-06-04T00:23:21;13.75;;;12.45;;
22046;SDS011;11187;49.412;20.956;2023-06-04T00:26:08;13.75;;;12.63;;
22046;SDS011;11187;49.412;20.956;2023-06-04T00:28:41;13.52;;;12.40;;
22046;SDS011;11187;49.412;20.956;2023-06-04T00:31:28;13.55;;;11.77;;
22046;SDS011;11187;49.412;20.956;2023-06-04T00:34:03;13.30;;;12.20;;
22046;SDS011;11187;49.412;20.956;2023-06-04T00:36:50;13.80;;;12.70;;
22046;SDS011;11187;49.412;20.956;2023-06-04T00:39:23;13.25;;;12.05;;
22046;SDS011;11187;49.412;20.956;2023-06-04T00:42:10;14.38;;;13.18;;
22046;SDS011;11187;49.412;20.956;2023-06-04T00:44:43;13.43;;;12.27;;
22046;SDS011;11187;49.412;20.956;2023-06-04T00:47:30;13.20;;;12.10;;
22046;SDS011;11187;49.412;20.956;2023-06-04T00:50:03;13.45;;;12.45;;
22046;SDS011;11187;49.412;20.956;2023-06-04T00:52:51;13.30;;;12.20;;
22046;SDS011;11187;49.412;20.956;2023-06-04T00:55:24;14.18;;;12.98;;
22046;SDS011;11187;49.412;20.956;2023-06-04T00:58:11;13.77;;;12.57;;
22046;SDS011;11187;49.412;20.956;2023-06-04T01:00:45;13.07;;;11.93;;
22046;SDS011;11187;49.412;20.956;2023-06-04T01:03:32;13.52;;;12.43;;
22046;SDS011;11187;49.412;20.956;2023-06-04T01:09:33;12.73;;;11.63;;
22046;SDS011;11187;49.412;20.956;2023-06-04T01:12:07;15.95;;;13.70;;
22046;SDS011;11187;49.412;20.956;2023-06-04T01:15:01;14.52;;;13.30;;
22046;SDS011;11187;49.412;20.956;2023-06-04T01:17:58;13.90;;;12.63;;
22046;SDS011;11187;49.412;20.956;2023-06-04T01:20:43;14.25;;;12.80;;
22046;SDS011;11187;49.412;20.956;2023-06-04T01:26:31;13.18;;;11.95;;
22046;SDS011;11187;49.412;20.956;2023-06-04T01:29:25;15.20;;;12.75;;
22046;SDS011;11187;49.412;20.956;2023-06-04T01:32:19;13.32;;;12.23;;
22046;SDS011;11187;49.412;20.956;2023-06-04T01:35:13;12.55;;;11.40;;
22046;SDS011;11187;49.412;20.956;2023-06-04T01:37:46;13.95;;;12.65;;
22046;SDS011;11187;49.412;20.956;2023-06-04T01:40:41;14.98;;;13.55;;
22046;SDS011;11187;49.412;20.956;2023-06-04T01:43:14;15.23;;;13.85;;
22046;SDS011;11187;49.412;20.956;2023-06-04T01:46:08;13.27;;;11.98;;
22046;SDS011;11187;49.412;20.956;2023-06-04T01:49:02;12.48;;;11.35;;
22046;SDS011;11187;49.412;20.956;2023-06-04T01:51:35;13.57;;;12.32;;
22046;SDS011;11187;49.412;20.956;2023-06-04T01:54:29;13.52;;;12.25;;
22046;SDS011;11187;49.412;20.956;2023-06-04T01:57:04;12.88;;;11.50;;
22046;SDS011;11187;49.412;20.956;2023-06-04T01:59:58;13.30;;;12.02;;
22046;SDS011;11187;49.412;20.956;2023-06-04T02:02:54;12.43;;;11.27;;
22046;SDS011;11187;49.412;20.956;2023-06-04T02:05:28;14.65;;;12.48;;
22046;SDS011;11187;49.412;20.956;2023-06-04T02:08:23;12.55;;;11.25;;
22046;SDS011;11187;49.412;20.956;2023-06-04T02:10:58;11.82;;;10.65;;
22046;SDS011;11187;49.412;20.956;2023-06-04T02:13:45;12.35;;;11.25;;
22046;SDS011;11187;49.412;20.956;2023-06-04T02:16:18;13.43;;;12.30;;
22046;SDS011;11187;49.412;20.956;2023-06-04T02:19:12;12.63;;;11.60;;
22046;SDS011;11187;49.412;20.956;2023-06-04T02:22:06;13.05;;;11.98;;
22046;SDS011;11187;49.412;20.956;2023-06-04T02:24:39;13.70;;;12.60;;
22046;SDS011;11187;49.412;20.956;2023-06-04T02:27:26;11.70;;;10.80;;
22046;SDS011;11187;49.412;20.956;2023-06-04T02:29:59;13.45;;;12.45;;
22046;SDS011;11187;49.412;20.956;2023-06-04T02:32:53;13.55;;;12.43;;
22046;SDS011;11187;49.412;20.956;2023-06-04T02:35:47;13.35;;;12.35;;
22046;SDS011;11187;49.412;20.956;2023-06-04T02:38:41;11.27;;;10.38;;
22046;SDS011;11187;49.412;20.956;2023-06-04T02:41:35;12.77;;;11.77;;
22046;SDS011;11187;49.412;20.956;2023-06-04T02:44:29;12.95;;;11.75;;
22046;SDS011;11187;49.412;20.956;2023-06-04T02:47:03;11.77;;;10.68;;
22046;SDS011;11187;49.412;20.956;2023-06-04T02:49:50;12.98;;;11.90;;
22046;SDS011;11187;49.412;20.956;2023-06-04T02:52:23;13.05;;;11.95;;
22046;SDS011;11187;49.412;20.956;2023-06-04T02:55:10;12.90;;;11.95;;
22046;SDS011;11187;49.412;20.956;2023-06-04T02:57:45;13.70;;;12.50;;
22046;SDS011;11187;49.412;20.956;2023-06-04T03:00:32;14.32;;;13.15;;
22046;SDS011;11187;49.412;20.956;2023-06-04T03:03:05;15.07;;;13.65;;
22046;SDS011;11187;49.412;20.956;2023-06-04T03:05:52;15.20;;;13.75;;
22046;SDS011;11187;49.412;20.956;2023-06-04T03:08:25;15.85;;;14.55;;
22046;SDS011;11187;49.412;20.956;2023-06-04T03:11:12;17.77;;;14.52;;
22046;SDS011;11187;49.412;20.956;2023-06-04T03:13:45;15.68;;;14.20;;
22046;SDS011;11187;49.412;20.956;2023-06-04T03:16:26;14.43;;;13.32;;
22046;SDS011;11187;49.412;20.956;2023-06-04T03:19:06;14.65;;;13.45;;
22046;SDS011;11187;49.412;20.956;2023-06-04T03:22:00;16.00;;;14.60;;
22046;SDS011;11187;49.412;20.956;2023-06-04T03:24:54;15.20;;;14.05;;
22046;SDS011;11187;49.412;20.956;2023-06-04T03:27:27;14.68;;;13.48;;
22046;SDS011;11187;49.412;20.956;2023-06-04T03:30:14;16.00;;;14.68;;
22046;SDS011;11187;49.412;20.956;2023-06-04T03:32:47;14.98;;;13.52;;
22046;SDS011;11187;49.412;20.956;2023-06-04T03:35:34;15.02;;;13.93;;
22046;SDS011;11187;49.412;20.956;2023-06-04T03:38:07;14.25;;;12.95;;
22046;SDS011;11187;49.412;20.956;2023-06-04T03:40:54;13.73;;;12.50;;
22046;SDS011;11187;49.412;20.956;2023-06-04T03:43:27;14.13;;;12.52;;
22046;SDS011;11187;49.412;20.956;2023-06-04T03:46:14;14.68;;;13.48;;
22046;SDS011;11187;49.412;20.956;2023-06-04T03:48:47;15.07;;;13.75;;
22046;SDS011;11187;49.412;20.956;2023-06-04T03:51:35;14.60;;;13.60;;
22046;SDS011;11187;49.412;20.956;2023-06-04T03:54:09;15.23;;;14.02;;
22046;SDS011;11187;49.412;20.956;2023-06-04T03:56:56;13.93;;;12.93;;
22046;SDS011;11187;49.412;20.956;2023-06-04T03:59:29;14.75;;;13.43;;
22046;SDS011;11187;49.412;20.956;2023-06-04T04:02:16;15.38;;;13.93;;
22046;SDS011;11187;49.412;20.956;2023-06-04T04:04:52;12.82;;;11.82;;
22046;SDS011;11187;49.412;20.956;2023-06-04T04:07:40;13.90;;;12.80;;
22046;SDS011;11187;49.412;20.956;2023-06-04T04:10:13;15.07;;;13.82;;
22046;SDS011;11187;49.412;20.956;2023-06-04T04:13:00;12.95;;;11.95;;
22046;SDS011;11187;49.412;20.956;2023-06-04T04:15:33;14.13;;;13.13;;
22046;SDS011;11187;49.412;20.956;2023-06-04T04:18:20;14.05;;;12.98;;
22046;SDS011;11187;49.412;20.956;2023-06-04T04:20:54;12.93;;;11.90;;
22046;SDS011;11187;49.412;20.956;2023-06-04T04:23:41;15.27;;;14.02;;
22046;SDS011;11187;49.412;20.956;2023-06-04T04:26:14;14.27;;;12.88;;
22046;SDS011;11187;49.412;20.956;2023-06-04T04:29:01;13.30;;;12.30;;
22046;SDS011;11187;49.412;20.956;2023-06-04T04:31:34;13.82;;;12.70;;
22046;SDS011;11187;49.412;20.956;2023-06-04T04:34:22;13.60;;;12.50;;
22046;SDS011;11187;49.412;20.956;2023-06-04T04:36:56;13.30;;;11.98;;
22046;SDS011;11187;49.412;20.956;2023-06-04T04:39:50;13.60;;;12.52;;
22046;SDS011;11187;49.412;20.956;2023-06-04T04:42:24;13.13;;;12.05;;
22046;SDS011;11187;49.412;20.956;2023-06-04T04:45:18;13.45;;;12.25;;
22046;SDS011;11187;49.412;20.956;2023-06-04T04:48:12;13.45;;;12.30;;
22046;SDS011;11187;49.412;20.956;2023-06-04T04:50:45;14.75;;;13.68;;
22046;SDS011;11187;49.412;20.956;2023-06-04T04:53:32;13.13;;;12.13;;
22046;SDS011;11187;49.412;20.956;2023-06-04T04:56:05;14.48;;;13.35;;
22046;SDS011;11187;49.412;20.956;2023-06-04T04:58:52;13.13;;;12.18;;
22046;SDS011;11187;49.412;20.956;2023-06-04T05:01:26;14.07;;;13.07;;
22046;SDS011;11187;49.412;20.956;2023-06-04T05:04:13;14.55;;;13.45;;
22046;SDS011;11187;49.412;20.956;2023-06-04T05:06:46;14.30;;;13.00;;
22046;SDS011;11187;49.412;20.956;2023-06-04T05:09:40;13.02;;;12.05;;
22046;SDS011;11187;49.412;20.956;2023-06-04T05:12:34;13.93;;;12.93;;
22046;SDS011;11187;49.412;20.956;2023-06-04T05:15:28;13.75;;;12.65;;
22046;SDS011;11187;49.412;20.956;2023-06-04T05:18:22;15.55;;;14.20;;
22046;SDS011;11187;49.412;20.956;2023-06-04T05:21:01;14.07;;;12.80;;
22046;SDS011;11187;49.412;20.956;2023-06-04T05:23:48;16.83;;;15.15;;
22046;SDS011;11187;49.412;20.956;2023-06-04T05:26:21;15.73;;;13.95;;
22046;SDS011;11187;49.412;20.956;2023-06-04T05:29:09;14.80;;;13.43;;
22046;SDS011;11187;49.412;20.956;2023-06-04T05:31:42;14.40;;;13.30;;
22046;SDS011;11187;49.412;20.956;2023-06-04T05:34:29;16.17;;;14.80;;
22046;SDS011;11187;49.412;20.956;2023-06-04T05:37:02;15.20;;;14.10;;
22046;SDS011;11187;49.412;20.956;2023-06-04T05:39:51;15.88;;;14.43;;
22046;SDS011;11187;49.412;20.956;2023-06-04T05:42:24;16.45;;;15.35;;
22046;SDS011;11187;49.412;20.956;2023-06-04T05:45:18;16.42;;;14.85;;
22046;SDS011;11187;49.412;20.956;2023-06-04T05:48:12;14.48;;;12.95;;
22046;SDS011;11187;49.412;20.956;2023-06-04T05:50:45;13.95;;;12.90;;
22046;SDS011;11187;49.412;20.956;2023-06-04T05:53:32;14.48;;;12.95;;
22046;SDS011;11187;49.412;20.956;2023-06-04T05:56:13;14.93;;;13.77;;
22046;SDS011;11187;49.412;20.956;2023-06-04T05:58:53;14.13;;;13.13;;
22046;SDS011;11187;49.412;20.956;2023-06-04T06:01:33;15.13;;;14.02;;
22046;SDS011;11187;49.412;20.956;2023-06-04T06:04:07;15.35;;;14.15;;
22046;SDS011;11187;49.412;20.956;2023-06-04T06:07:01;14.77;;;13.57;;
22046;SDS011;11187;49.412;20.956;2023-06-04T06:09:55;15.73;;;14.23;;
22046;SDS011;11187;49.412;20.956;2023-06-04T06:12:28;15.68;;;14.57;;
22046;SDS011;11187;49.412;20.956;2023-06-04T06:15:15;14.85;;;13.55;;
22046;SDS011;11187;49.412;20.956;2023-06-04T06:17:49;13.18;;;11.82;;
22046;SDS011;11187;49.412;20.956;2023-06-04T06:20:43;15.05;;;13.73;;
22046;SDS011;11187;49.412;20.956;2023-06-04T06:23:16;15.65;;;14.38;;
22046;SDS011;11187;49.412;20.956;2023-06-04T06:26:10;18.10;;;15.73;;
22046;SDS011;11187;49.412;20.956;2023-06-04T06:29:04;14.90;;;13.90;;
22046;SDS011;11187;49.412;20.956;2023-06-04T06:31:37;14.55;;;13.55;;
22046;SDS011;11187;49.412;20.956;2023-06-04T06:34:24;16.90;;;15.60;;
22046;SDS011;11187;49.412;20.956;2023-06-04T06:36:57;15.80;;;14.50;;
22046;SDS011;11187;49.412;20.956;2023-06-04T06:39:44;17.63;;;16.40;;
22046;SDS011;11187;49.412;20.956;2023-06-04T06:42:17;16.85;;;15.75;;
22046;SDS011;11187;49.412;20.956;2023-06-04T06:45:04;16.63;;;15.20;;
22046;SDS011;11187;49.412;20.956;2023-06-04T06:47:38;14.70;;;13.48;;
22046;SDS011;11187;49.412;20.956;2023-06-04T06:50:25;15.45;;;14.35;;
22046;SDS011;11187;49.412;20.956;2023-06-04T06:52:58;14.32;;;13.20;;
22046;SDS011;11187;49.412;20.956;2023-06-04T06:55:45;15.50;;;14.30;;
22046;SDS011;11187;49.412;20.956;2023-06-04T06:58:18;14.93;;;13.80;;
22046;SDS011;11187;49.412;20.956;2023-06-04T07:01:05;15.63;;;14.32;;
22046;SDS011;11187;49.412;20.956;2023-06-04T07:03:38;18.55;;;17.05;;
22046;SDS011;11187;49.412;20.956;2023-06-04T07:06:26;18.50;;;17.30;;
22046;SDS011;11187;49.412;20.956;2023-06-04T07:08:59;17.52;;;16.42;;
22046;SDS011;11187;49.412;20.956;2023-06-04T07:11:46;18.25;;;16.98;;
22046;SDS011;11187;49.412;20.956;2023-06-04T07:14:20;18.13;;;16.77;;
22046;SDS011;11187;49.412;20.956;2023-06-04T07:17:14;18.42;;;17.05;;
22046;SDS011;11187;49.412;20.956;2023-06-04T07:20:08;18.42;;;17.13;;
22046;SDS011;11187;49.412;20.956;2023-06-04T07:22:42;18.23;;;16.83;;
22046;SDS011;11187;49.412;20.956;2023-06-04T07:25:29;17.33;;;15.93;;
22046;SDS011;11187;49.412;20.956;2023-06-04T07:28:02;15.30;;;14.20;;
22046;SDS011;11187;49.412;20.956;2023-06-04T07:30:56;18.13;;;16.92;;
22046;SDS011;11187;49.412;20.956;2023-06-04T07:33:50;17.92;;;16.75;;
22046;SDS011;11187;49.412;20.956;2023-06-04T07:36:23;15.25;;;14.05;;
22046;SDS011;11187;49.412;20.956;2023-06-04T07:39:11;12.93;;;11.93;;
22046;SDS011;11187;49.412;20.956;2023-06-04T07:41:44;17.60;;;16.25;;
22046;SDS011;11187;49.412;20.956;2023-06-04T07:44:31;19.60;;;18.15;;
22046;SDS011;11187;49.412;20.956;2023-06-04T07:47:04;16.38;;;15.18;;
22046;SDS011;11187;49.412;20.956;2023-06-04T07:49:51;14.07;;;13.18;;
22046;SDS011;11187;49.412;20.956;2023-06-04T07:52:29;18.77;;;17.23;;
22046;SDS011;11187;49.412;20.956;2023-06-04T07:55:16;17.05;;;15.73;;
22046;SDS011;11187;49.412;20.956;2023-06-04T07:57:49;16.75;;;15.55;;
22046;SDS011;11187;49.412;20.956;2023-06-04T08:00:36;15.55;;;14.18;;
22046;SDS011;11187;49.412;20.956;2023-06-04T08:03:09;15.43;;;14.32;;
22046;SDS011;11187;49.412;20.956;2023-06-04T08:05:56;13.27;;;12.35;;
22046;SDS011;11187;49.412;20.956;2023-06-04T08:08:30;15.98;;;14.73;;
22046;SDS011;11187;49.412;20.956;2023-06-04T08:11:24;13.70;;;12.60;;
22046;SDS011;11187;49.412;20.956;2023-06-04T08:14:18;14.45;;;13.40;;
22046;SDS011;11187;49.412;20.956;2023-06-04T08:17:13;14.23;;;12.75;;
22046;SDS011;11187;49.412;20.956;2023-06-04T08:20:22;14.18;;;12.95;;
22046;SDS011;11187;49.412;20.956;2023-06-04T08:23:10;14.05;;;12.73;;
22046;SDS011;11187;49.412;20.956;2023-06-04T08:26:24;12.57;;;11.60;;
22046;SDS011;11187;49.412;20.956;2023-06-04T08:29:28;14.80;;;13.60;;
22046;SDS011;11187;49.412;20.956;2023-06-04T08:32:43;13.35;;;12.40;;
22046;SDS011;11187;49.412;20.956;2023-06-04T08:35:43;13.23;;;12.32;;
22046;SDS011;11187;49.412;20.956;2023-06-04T08:38:16;11.98;;;10.93;;
22046;SDS011;11187;49.412;20.956;2023-06-04T08:41:15;11.93;;;11.02;;
22046;SDS011;11187;49.412;20.956;2023-06-04T08:43:56;10.75;;;9.95;;
22046;SDS011;11187;49.412;20.956;2023-06-04T08:46:45;12.05;;;11.05;;
22046;SDS011;11187;49.412;20.956;2023-06-04T08:49:21;11.18;;;10.38;;
22046;SDS011;11187;49.412;20.956;2023-06-04T08:52:15;13.05;;;11.18;;
22046;SDS011;11187;49.412;20.956;2023-06-04T08:55:10;13.02;;;11.77;;
22046;SDS011;11187;49.412;20.956;2023-06-04T08:57:47;14.00;;;13.00;;
22046;SDS011;11187;49.412;20.956;2023-06-04T09:00:35;15.27;;;12.05;;
22046;SDS011;11187;49.412;20.956;2023-06-04T09:03:08;13.27;;;12.32;;
22046;SDS011;11187;49.412;20.956;2023-06-04T09:05:58;12.38;;;11.43;;
22046;SDS011;11187;49.412;20.956;2023-06-04T09:08:34;12.73;;;11.73;;
22046;SDS011;11187;49.412;20.956;2023-06-04T09:11:45;13.77;;;12.77;;
22046;SDS011;11187;49.412;20.956;2023-06-04T09:14:42;13.68;;;12.68;;
22046;SDS011;11187;49.412;20.956;2023-06-04T09:17:37;12.43;;;11.52;;
22046;SDS011;11187;49.412;20.956;2023-06-04T09:20:31;13.23;;;12.00;;
22046;SDS011;11187;49.412;20.956;2023-06-04T09:23:14;12.55;;;11.55;;
22046;SDS011;11187;49.412;20.956;2023-06-04T09:26:08;12.73;;;11.82;;
22046;SDS011;11187;49.412;20.956;2023-06-04T09:29:03;14.15;;;13.05;;
22046;SDS011;11187;49.412;20.956;2023-06-04T09:31:38;11.63;;;10.80;;
22046;SDS011;11187;49.412;20.956;2023-06-04T09:34:27;13.38;;;12.27;;
22046;SDS011;11187;49.412;20.956;2023-06-04T09:37:01;14.73;;;13.50;;
22046;SDS011;11187;49.412;20.956;2023-06-04T09:39:54;11.77;;;10.93;;
22046;SDS011;11187;49.412;20.956;2023-06-04T09:42:28;11.82;;;10.80;;
22046;SDS011;11187;49.412;20.956;2023-06-04T09:45:29;11.32;;;10.52;;
22046;SDS011;11187;49.412;20.956;2023-06-04T09:48:04;11.00;;;9.98;;
22046;SDS011;11187;49.412;20.956;2023-06-04T09:51:05;11.60;;;10.60;;
22046;SDS011;11187;49.412;20.956;2023-06-04T09:53:39;11.07;;;10.27;;
22046;SDS011;11187;49.412;20.956;2023-06-04T09:56:26;11.95;;;10.95;;
22046;SDS011;11187;49.412;20.956;2023-06-04T09:59:00;10.13;;;9.32;;
22046;SDS011;11187;49.412;20.956;2023-06-04T10:01:54;13.35;;;10.43;;
22046;SDS011;11187;49.412;20.956;2023-06-04T10:04:28;12.48;;;11.25;;
22046;SDS011;11187;49.412;20.956;2023-06-04T10:07:23;12.43;;;11.30;;
22046;SDS011;11187;49.412;20.956;2023-06-04T10:09:59;12.10;;;11.13;;
22046;SDS011;11187;49.412;20.956;2023-06-04T10:13:05;11.52;;;10.63;;
22046;SDS011;11187;49.412;20.956;2023-06-04T10:16:08;11.82;;;10.82;;
22046;SDS011;11187;49.412;20.956;2023-06-04T10:19:13;11.77;;;10.77;;
22046;SDS011;11187;49.412;20.956;2023-06-04T10:22:08;12.18;;;11.07;;
22046;SDS011;11187;49.412;20.956;2023-06-04T10:24:44;11.68;;;10.88;;
22046;SDS011;11187;49.412;20.956;2023-06-04T10:27:31;11.55;;;10.68;;
22046;SDS011;11187;49.412;20.956;2023-06-04T10:30:06;11.05;;;10.25;;
22046;SDS011;11187;49.412;20.956;2023-06-04T10:32:53;11.02;;;9.93;;
22046;SDS011;11187;49.412;20.956;2023-06-04T10:35:30;11.30;;;10.40;;
22046;SDS011;11187;49.412;20.956;2023-06-04T10:38:17;11.40;;;10.50;;
22046;SDS011;11187;49.412;20.956;2023-06-04T10:40:51;12.52;;;10.85;;
22046;SDS011;11187;49.412;20.956;2023-06-04T10:43:38;11.45;;;10.55;;
22046;SDS011;11187;49.412;20.956;2023-06-04T10:46:13;11.23;;;10.32;;
22046;SDS011;11187;49.412;20.956;2023-06-04T10:49:00;12.88;;;11.63;;
22046;SDS011;11187;49.412;20.956;2023-06-04T10:51:34;10.90;;;10.10;;
22046;SDS011;11187;49.412;20.956;2023-06-04T10:54:30;12.35;;;11.25;;
22046;SDS011;11187;49.412;20.956;2023-06-04T10:57:24;11.43;;;10.45;;
22046;SDS011;11187;49.412;20.956;2023-06-04T10:59:58;11.10;;;10.30;;
22046;SDS011;11187;49.412;20.956;2023-06-04T11:02:52;13.95;;;12.60;;
22046;SDS011;11187;49.412;20.956;2023-06-04T11:05:37;14.10;;;10.98;;
22046;SDS011;11187;49.412;20.956;2023-06-04T11:08:28;10.73;;;9.93;;
22046;SDS011;11187;49.412;20.956;2023-06-04T11:11:10;11.80;;;10.90;;
22046;SDS011;11187;49.412;20.956;2023-06-04T11:14:07;11.95;;;10.93;;
22046;SDS011;11187;49.412;20.956;2023-06-04T11:17:09;11.70;;;10.50;;
22046;SDS011;11187;49.412;20.956;2023-06-04T11:20:03;12.10;;;11.20;;
22046;SDS011;11187;49.412;20.956;2023-06-04T11:22:39;12.18;;;10.65;;
22046;SDS011;11187;49.412;20.956;2023-06-04T11:25:33;11.35;;;10.25;;
22046;SDS011;11187;49.412;20.956;2023-06-04T11:28:06;11.65;;;10.63;;
22046;SDS011;11187;49.412;20.956;2023-06-04T11:31:00;12.95;;;11.60;;
22046;SDS011;11187;49.412;20.956;2023-06-04T11:33:45;12.27;;;10.93;;
22046;SDS011;11187;49.412;20.956;2023-06-04T11:36:40;13.50;;;11.55;;
22046;SDS011;11187;49.412;20.956;2023-06-04T11:39:13;12.77;;;11.48;;
22046;SDS011;11187;49.412;20.956;2023-06-04T11:42:07;12.50;;;11.60;;
22046;SDS011;11187;49.412;20.956;2023-06-04T11:44:40;11.60;;;10.70;;
22046;SDS011;11187;49.412;20.956;2023-06-04T11:47:28;11.90;;;10.80;;
22046;SDS011;11187;49.412;20.956;2023-06-04T11:50:03;14.10;;;10.35;;
22046;SDS011;11187;49.412;20.956;2023-06-04T11:52:57;11.68;;;10.80;;
22046;SDS011;11187;49.412;20.956;2023-06-04T11:55:32;11.52;;;10.43;;
22046;SDS011;11187;49.412;20.956;2023-06-04T11:58:20;10.68;;;9.88;;
22046;SDS011;11187;49.412;20.956;2023-06-04T12:00:54;11.55;;;10.55;;
22046;SDS011;11187;49.412;20.956;2023-06-04T12:03:42;11.88;;;10.88;;
22046;SDS011;11187;49.412;20.956;2023-06-04T12:06:19;11.07;;;10.18;;
22046;SDS011;11187;49.412;20.956;2023-06-04T12:09:06;10.88;;;10.07;;
22046;SDS011;11187;49.412;20.956;2023-06-04T12:11:39;12.65;;;11.50;;
22046;SDS011;11187;49.412;20.956;2023-06-04T12:14:26;11.40;;;10.40;;
22046;SDS011;11187;49.412;20.956;2023-06-04T12:17:20;12.00;;;11.00;;
22046;SDS011;11187;49.412;20.956;2023-06-04T12:19:53;12.52;;;11.30;;
22046;SDS011;11187;49.412;20.956;2023-06-04T12:22:47;10.95;;;10.15;;
22046;SDS011;11187;49.412;20.956;2023-06-04T12:25:24;11.15;;;10.25;;
22046;SDS011;11187;49.412;20.956;2023-06-04T12:28:17;10.55;;;9.70;;
22046;SDS011;11187;49.412;20.956;2023-06-04T12:30:50;10.57;;;9.68;;
22046;SDS011;11187;49.412;20.956;2023-06-04T12:33:37;10.57;;;9.77;;
22046;SDS011;11187;49.412;20.956;2023-06-04T12:36:10;11.88;;;9.77;;
22046;SDS011;11187;49.412;20.956;2023-06-04T12:38:58;10.60;;;9.70;;
22046;SDS011;11187;49.412;20.956;2023-06-04T12:41:35;10.30;;;9.43;;
22046;SDS011;11187;49.412;20.956;2023-06-04T12:44:28;10.45;;;9.60;;
22046;SDS011;11187;49.412;20.956;2023-06-04T12:47:22;11.10;;;10.30;;
22046;SDS011;11187;49.412;20.956;2023-06-04T12:50:16;11.20;;;10.30;;
22046;SDS011;11187;49.412;20.956;2023-06-04T12:52:50;12.45;;;11.32;;
22046;SDS011;11187;49.412;20.956;2023-06-04T12:55:44;11.57;;;10.77;;
22046;SDS011;11187;49.412;20.956;2023-06-04T12:58:38;11.48;;;10.57;;
22046;SDS011;11187;49.412;20.956;2023-06-04T13:01:11;12.27;;;11.25;;
22046;SDS011;11187;49.412;20.956;2023-06-04T13:03:58;11.98;;;11.07;;
22046;SDS011;11187;49.412;20.956;2023-06-04T13:06:33;11.02;;;10.02;;
22046;SDS011;11187;49.412;20.956;2023-06-04T13:09:21;11.65;;;10.65;;
22046;SDS011;11187;49.412;20.956;2023-06-04T13:11:55;11.55;;;10.65;;
22046;SDS011;11187;49.412;20.956;2023-06-04T13:14:43;12.35;;;11.45;;
22046;SDS011;11187;49.412;20.956;2023-06-04T13:17:37;12.63;;;11.65;;
22046;SDS011;11187;49.412;20.956;2023-06-04T13:20:31;10.38;;;9.55;;
22046;SDS011;11187;49.412;20.956;2023-06-04T13:23:25;11.23;;;10.43;;
22046;SDS011;11187;49.412;20.956;2023-06-04T13:26:15;11.70;;;10.52;;
22046;SDS011;11187;49.412;20.956;2023-06-04T13:29:10;11.35;;;10.50;;
22046;SDS011;11187;49.412;20.956;2023-06-04T13:32:08;11.82;;;10.73;;
22046;SDS011;11187;49.412;20.956;2023-06-04T13:35:02;11.07;;;10.15;;
22046;SDS011;11187;49.412;20.956;2023-06-04T13:37:35;11.13;;;10.20;;
22046;SDS011;11187;49.412;20.956;2023-06-04T13:40:22;10.52;;;9.73;;
22046;SDS011;11187;49.412;20.956;2023-06-04T13:42:55;10.25;;;9.40;;
22046;SDS011;11187;49.412;20.956;2023-06-04T13:45:42;11.63;;;10.63;;
22046;SDS011;11187;49.412;20.956;2023-06-04T13:48:18;11.45;;;10.35;;
22046;SDS011;11187;49.412;20.956;2023-06-04T13:51:05;10.43;;;9.43;;
22046;SDS011;11187;49.412;20.956;2023-06-04T13:53:38;10.20;;;9.18;;
22046;SDS011;11187;49.412;20.956;2023-06-04T13:56:25;11.65;;;10.50;;
22046;SDS011;11187;49.412;20.956;2023-06-04T13:58:58;10.43;;;9.63;;
22046;SDS011;11187;49.412;20.956;2023-06-04T14:01:52;11.80;;;10.65;;
22046;SDS011;11187;49.412;20.956;2023-06-04T14:04:26;11.40;;;10.60;;
22046;SDS011;11187;49.412;20.956;2023-06-04T14:07:19;10.98;;;9.85;;
22046;SDS011;11187;49.412;20.956;2023-06-04T14:10:13;10.27;;;9.38;;
22046;SDS011;11187;49.412;20.956;2023-06-04T14:12:47;10.40;;;9.52;;
22046;SDS011;11187;49.412;20.956;2023-06-04T14:15:33;11.57;;;10.55;;
22046;SDS011;11187;49.412;20.956;2023-06-04T14:18:07;10.93;;;9.82;;
22046;SDS011;11187;49.412;20.956;2023-06-04T14:20:53;11.68;;;10.68;;
22046;SDS011;11187;49.412;20.956;2023-06-04T14:23:27;10.90;;;9.80;;
22046;SDS011;11187;49.412;20.956;2023-06-04T14:26:13;10.75;;;9.85;;
22046;SDS011;11187;49.412;20.956;2023-06-04T14:28:46;11.38;;;10.20;;
22046;SDS011;11187;49.412;20.956;2023-06-04T14:31:33;10.55;;;9.80;;
22046;SDS011;11187;49.412;20.956;2023-06-04T14:34:09;10.55;;;8.98;;
22046;SDS011;11187;49.412;20.956;2023-06-04T14:36:55;10.88;;;10.07;;
22046;SDS011;11187;49.412;20.956;2023-06-04T14:39:32;10.20;;;9.40;;
22046;SDS011;11187;49.412;20.956;2023-06-04T14:42:19;10.05;;;9.25;;
22046;SDS011;11187;49.412;20.956;2023-06-04T14:44:52;13.38;;;10.93;;
22046;SDS011;11187;49.412;20.956;2023-06-04T14:47:46;18.80;;;10.10;;
22046;SDS011;11187;49.412;20.956;2023-06-04T14:50:54;10.93;;;10.05;;
22046;SDS011;11187;49.412;20.956;2023-06-04T14:53:29;10.25;;;9.45;;
22046;SDS011;11187;49.412;20.956;2023-06-04T14:56:18;11.48;;;10.52;;
22046;SDS011;11187;49.412;20.956;2023-06-04T14:58:52;12.20;;;10.32;;
22046;SDS011;11187;49.412;20.956;2023-06-04T15:01:38;10.27;;;9.57;;
22046;SDS011;11187;49.412;20.956;2023-06-04T15:04:13;11.18;;;10.27;;
22046;SDS011;11187;49.412;20.956;2023-06-04T15:07:06;11.65;;;10.65;;
22046;SDS011;11187;49.412;20.956;2023-06-04T15:10:00;11.05;;;10.25;;
22046;SDS011;11187;49.412;20.956;2023-06-04T15:12:54;11.38;;;10.35;;
22046;SDS011;11187;49.412;20.956;2023-06-04T15:15:29;11.65;;;10.75;;
22046;SDS011;11187;49.412;20.956;2023-06-04T15:18:22;11.63;;;10.50;;
22046;SDS011;11187;49.412;20.956;2023-06-04T15:21:16;11.23;;;10.02;;
22046;SDS011;11187;49.412;20.956;2023-06-04T15:23:50;13.07;;;9.32;;
22046;SDS011;11187;49.412;20.956;2023-06-04T15:26:36;12.27;;;11.32;;
22046;SDS011;11187;49.412;20.956;2023-06-04T15:29:10;11.20;;;10.38;;
22046;SDS011;11187;49.412;20.956;2023-06-04T15:31:57;10.50;;;9.70;;
22046;SDS011;11187;49.412;20.956;2023-06-04T15:34:31;11.05;;;10.00;;
22046;SDS011;11187;49.412;20.956;2023-06-04T15:37:24;11.65;;;10.70;;
22046;SDS011;11187;49.412;20.956;2023-06-04T15:40:18;11.00;;;10.10;;
22046;SDS011;11187;49.412;20.956;2023-06-04T15:42:52;10.38;;;9.38;;
22046;SDS011;11187;49.412;20.956;2023-06-04T15:45:38;11.07;;;9.95;;
22046;SDS011;11187;49.412;20.956;2023-06-04T15:48:12;10.20;;;9.20;;
22046;SDS011;11187;49.412;20.956;2023-06-04T15:50:58;11.05;;;10.15;;
22046;SDS011;11187;49.412;20.956;2023-06-04T15:53:32;10.77;;;9.70;;
22046;SDS011;11187;49.412;20.956;2023-06-04T15:56:19;9.90;;;9.07;;